sensor_id;sensor_type;location;lat;lon;timestamp;P1;durP1;ratioP1;P2;durP2;ratioP2
25846;SDS011;13676;50.168;8.568;2023-04-10T00:01:12;9.98;;;7.28;;
25846;SDS011;13676;50.168;8.568;2023-04-10T00:03:40;9.95;;;6.55;;
25846;SDS011;13676;50.168;8.568;2023-04-10T00:06:05;9.40;;;7.43;;
25846;SDS011;13676;50.168;8.568;2023-04-10T00:08:31;10.80;;;7.25;;
25846;SDS011;13676;50.168;8.568;2023-04-10T00:10:57;9.13;;;7.22;;
25846;SDS011;13676;50.168;8.568;2023-04-10T00:13:23;7.68;;;6.18;;
25846;SDS011;13676;50.168;8.568;2023-04-10T00:15:49;11.48;;;7.80;;
25846;SDS011;13676;50.168;8.568;2023-04-10T00:18:15;8.73;;;6.63;;
25846;SDS011;13676;50.168;8.568;2023-04-10T00:20:40;9.52;;;7.50;;
25846;SDS011;13676;50.168;8.568;2023-04-10T00:23:06;9.85;;;7.22;;
25846;SDS011;13676;50.168;8.568;2023-04-10T00:25:31;9.95;;;7.00;;
25846;SDS011;13676;50.168;8.568;2023-04-10T00:27:58;8.40;;;6.47;;
25846;SDS011;13676;50.168;8.568;2023-04-10T00:32:53;7.38;;;5.70;;
25846;SDS011;13676;50.168;8.568;2023-04-10T00:35:19;10.20;;;8.02;;
25846;SDS011;13676;50.168;8.568;2023-04-10T00:37:44;8.57;;;6.75;;
25846;SDS011;13676;50.168;8.568;2023-04-10T00:40:13;8.93;;;6.32;;
25846;SDS011;13676;50.168;8.568;2023-04-10T00:42:38;9.10;;;6.82;;
25846;SDS011;13676;50.168;8.568;2023-04-10T00:45:09;8.98;;;6.97;;
25846;SDS011;13676;50.168;8.568;2023-04-10T00:47:36;7.47;;;6.22;;
25846;SDS011;13676;50.168;8.568;2023-04-10T00:50:04;8.73;;;6.70;;
25846;SDS011;13676;50.168;8.568;2023-04-10T00:52:30;7.82;;;6.47;;
25846;SDS011;13676;50.168;8.568;2023-04-10T00:54:57;9.90;;;6.78;;
25846;SDS011;13676;50.168;8.568;2023-04-10T00:57:23;10.63;;;7.07;;
25846;SDS011;13676;50.168;8.568;2023-04-10T00:59:49;8.57;;;6.82;;
25846;SDS011;13676;50.168;8.568;2023-04-10T01:02:16;10.43;;;8.10;;
25846;SDS011;13676;50.168;8.568;2023-04-10T01:04:41;10.45;;;7.75;;
25846;SDS011;13676;50.168;8.568;2023-04-10T01:17:34;10.32;;;7.57;;
25846;SDS011;13676;50.168;8.568;2023-04-10T01:20:08;9.38;;;7.43;;
25846;SDS011;13676;50.168;8.568;2023-04-10T01:22:51;12.40;;;8.57;;
25846;SDS011;13676;50.168;8.568;2023-04-10T01:30:41;9.77;;;7.70;;
25846;SDS011;13676;50.168;8.568;2023-04-10T01:33:08;9.02;;;7.30;;
25846;SDS011;13676;50.168;8.568;2023-04-10T01:35:37;8.55;;;6.60;;
25846;SDS011;13676;50.168;8.568;2023-04-10T01:38:03;9.32;;;7.60;;
25846;SDS011;13676;50.168;8.568;2023-04-10T01:40:28;11.00;;;8.50;;
25846;SDS011;13676;50.168;8.568;2023-04-10T01:42:55;9.13;;;7.23;;
25846;SDS011;13676;50.168;8.568;2023-04-10T01:45:24;9.52;;;7.07;;
25846;SDS011;13676;50.168;8.568;2023-04-10T01:47:52;11.40;;;8.65;;
25846;SDS011;13676;50.168;8.568;2023-04-10T01:50:18;10.80;;;7.60;;
25846;SDS011;13676;50.168;8.568;2023-04-10T01:52:47;9.70;;;7.10;;
25846;SDS011;13676;50.168;8.568;2023-04-10T01:55:13;11.27;;;7.15;;
25846;SDS011;13676;50.168;8.568;2023-04-10T01:57:39;7.85;;;6.55;;
25846;SDS011;13676;50.168;8.568;2023-04-10T02:00:05;10.20;;;7.93;;
25846;SDS011;13676;50.168;8.568;2023-04-10T02:02:31;7.65;;;6.65;;
25846;SDS011;13676;50.168;8.568;2023-04-10T02:04:57;8.77;;;6.85;;
25846;SDS011;13676;50.168;8.568;2023-04-10T02:07:24;9.07;;;6.15;;
25846;SDS011;13676;50.168;8.568;2023-04-10T02:12:25;9.18;;;7.18;;
25846;SDS011;13676;50.168;8.568;2023-04-10T02:15:02;9.20;;;7.22;;
25846;SDS011;13676;50.168;8.568;2023-04-10T02:17:30;7.70;;;6.22;;
25846;SDS011;13676;50.168;8.568;2023-04-10T02:19:56;7.95;;;6.47;;
25846;SDS011;13676;50.168;8.568;2023-04-10T02:22:26;9.30;;;6.97;;
25846;SDS011;13676;50.168;8.568;2023-04-10T02:24:52;7.70;;;6.75;;
25846;SDS011;13676;50.168;8.568;2023-04-10T02:27:28;9.65;;;7.20;;
25846;SDS011;13676;50.168;8.568;2023-04-10T02:29:54;7.95;;;6.05;;
25846;SDS011;13676;50.168;8.568;2023-04-10T02:32:20;10.43;;;7.25;;
25846;SDS011;13676;50.168;8.568;2023-04-10T02:34:46;9.35;;;7.68;;
25846;SDS011;13676;50.168;8.568;2023-04-10T02:37:15;10.27;;;8.07;;
25846;SDS011;13676;50.168;8.568;2023-04-10T02:39:40;9.25;;;7.15;;
25846;SDS011;13676;50.168;8.568;2023-04-10T02:42:06;11.57;;;7.68;;
25846;SDS011;13676;50.168;8.568;2023-04-10T02:44:31;10.15;;;8.68;;
25846;SDS011;13676;50.168;8.568;2023-04-10T02:46:56;16.85;;;10.43;;
25846;SDS011;13676;50.168;8.568;2023-04-10T02:49:22;11.90;;;8.70;;
25846;SDS011;13676;50.168;8.568;2023-04-10T02:51:47;10.52;;;8.52;;
25846;SDS011;13676;50.168;8.568;2023-04-10T02:54:12;9.55;;;7.35;;
25846;SDS011;13676;50.168;8.568;2023-04-10T02:56:38;8.77;;;7.00;;
25846;SDS011;13676;50.168;8.568;2023-04-10T02:59:03;12.07;;;9.15;;
25846;SDS011;13676;50.168;8.568;2023-04-10T03:01:28;11.80;;;8.23;;
25846;SDS011;13676;50.168;8.568;2023-04-10T03:03:54;13.07;;;9.77;;
25846;SDS011;13676;50.168;8.568;2023-04-10T03:06:20;11.70;;;8.45;;
25846;SDS011;13676;50.168;8.568;2023-04-10T03:08:47;12.18;;;9.35;;
25846;SDS011;13676;50.168;8.568;2023-04-10T03:11:13;11.43;;;8.93;;
25846;SDS011;13676;50.168;8.568;2023-04-10T03:13:38;12.48;;;8.93;;
25846;SDS011;13676;50.168;8.568;2023-04-10T03:16:04;14.45;;;8.90;;
25846;SDS011;13676;50.168;8.568;2023-04-10T03:18:30;12.32;;;8.35;;
25846;SDS011;13676;50.168;8.568;2023-04-10T03:20:56;14.65;;;9.77;;
25846;SDS011;13676;50.168;8.568;2023-04-10T03:23:21;11.93;;;9.73;;
25846;SDS011;13676;50.168;8.568;2023-04-10T03:25:49;10.60;;;8.50;;
25846;SDS011;13676;50.168;8.568;2023-04-10T03:28:17;13.40;;;9.43;;
25846;SDS011;13676;50.168;8.568;2023-04-10T03:30:43;11.68;;;9.07;;
25846;SDS011;13676;50.168;8.568;2023-04-10T03:33:08;13.40;;;9.65;;
25846;SDS011;13676;50.168;8.568;2023-04-10T03:35:36;11.95;;;9.30;;
25846;SDS011;13676;50.168;8.568;2023-04-10T03:38:01;11.52;;;9.18;;
25846;SDS011;13676;50.168;8.568;2023-04-10T03:40:27;10.77;;;8.23;;
25846;SDS011;13676;50.168;8.568;2023-04-10T03:42:52;12.95;;;10.32;;
25846;SDS011;13676;50.168;8.568;2023-04-10T03:45:17;13.98;;;10.20;;
25846;SDS011;13676;50.168;8.568;2023-04-10T03:47:43;13.10;;;10.40;;
25846;SDS011;13676;50.168;8.568;2023-04-10T03:50:08;11.57;;;9.10;;
25846;SDS011;13676;50.168;8.568;2023-04-10T03:52:34;12.55;;;10.25;;
25846;SDS011;13676;50.168;8.568;2023-04-10T03:55:08;13.10;;;9.52;;
25846;SDS011;13676;50.168;8.568;2023-04-10T03:57:34;12.32;;;9.75;;
25846;SDS011;13676;50.168;8.568;2023-04-10T03:59:59;12.40;;;9.30;;
25846;SDS011;13676;50.168;8.568;2023-04-10T04:02:25;11.52;;;8.85;;
25846;SDS011;13676;50.168;8.568;2023-04-10T04:04:50;14.02;;;10.63;;
25846;SDS011;13676;50.168;8.568;2023-04-10T04:07:16;13.20;;;10.45;;
25846;SDS011;13676;50.168;8.568;2023-04-10T04:09:42;11.05;;;8.55;;
25846;SDS011;13676;50.168;8.568;2023-04-10T04:12:07;12.93;;;9.80;;
25846;SDS011;13676;50.168;8.568;2023-04-10T04:14:33;11.05;;;9.07;;
25846;SDS011;13676;50.168;8.568;2023-04-10T04:16:58;12.00;;;9.05;;
25846;SDS011;13676;50.168;8.568;2023-04-10T04:19:23;13.40;;;10.45;;
25846;SDS011;13676;50.168;8.568;2023-04-10T04:21:49;12.75;;;9.18;;
25846;SDS011;13676;50.168;8.568;2023-04-10T04:29:18;12.65;;;10.15;;
25846;SDS011;13676;50.168;8.568;2023-04-10T04:31:43;13.35;;;9.90;;
25846;SDS011;13676;50.168;8.568;2023-04-10T04:34:08;15.82;;;10.20;;
25846;SDS011;13676;50.168;8.568;2023-04-10T04:36:34;11.23;;;8.75;;
25846;SDS011;13676;50.168;8.568;2023-04-10T04:38:59;15.30;;;10.30;;
25846;SDS011;13676;50.168;8.568;2023-04-10T04:41:24;12.45;;;9.65;;
25846;SDS011;13676;50.168;8.568;2023-04-10T04:43:50;14.02;;;9.80;;
25846;SDS011;13676;50.168;8.568;2023-04-10T04:46:17;14.15;;;10.52;;
25846;SDS011;13676;50.168;8.568;2023-04-10T04:48:42;13.65;;;10.35;;
25846;SDS011;13676;50.168;8.568;2023-04-10T04:51:08;16.58;;;10.88;;
25846;SDS011;13676;50.168;8.568;2023-04-10T04:53:35;15.48;;;11.55;;
25846;SDS011;13676;50.168;8.568;2023-04-10T04:56:01;13.27;;;9.90;;
25846;SDS011;13676;50.168;8.568;2023-04-10T04:58:29;11.23;;;8.88;;
25846;SDS011;13676;50.168;8.568;2023-04-10T05:00:55;11.68;;;9.52;;
25846;SDS011;13676;50.168;8.568;2023-04-10T05:03:20;12.82;;;10.13;;
25846;SDS011;13676;50.168;8.568;2023-04-10T05:05:46;12.65;;;9.82;;
25846;SDS011;13676;50.168;8.568;2023-04-10T05:08:11;15.35;;;11.15;;
25846;SDS011;13676;50.168;8.568;2023-04-10T05:10:37;12.82;;;10.18;;
25846;SDS011;13676;50.168;8.568;2023-04-10T05:13:02;14.35;;;10.25;;
25846;SDS011;13676;50.168;8.568;2023-04-10T05:15:30;13.80;;;10.35;;
25846;SDS011;13676;50.168;8.568;2023-04-10T05:17:56;13.75;;;10.18;;
25846;SDS011;13676;50.168;8.568;2023-04-10T05:20:21;13.23;;;9.40;;
25846;SDS011;13676;50.168;8.568;2023-04-10T05:22:47;13.00;;;10.23;;
25846;SDS011;13676;50.168;8.568;2023-04-10T05:25:12;13.10;;;9.48;;
25846;SDS011;13676;50.168;8.568;2023-04-10T05:27:38;13.10;;;10.38;;
25846;SDS011;13676;50.168;8.568;2023-04-10T05:30:03;11.68;;;9.20;;
25846;SDS011;13676;50.168;8.568;2023-04-10T05:32:28;12.38;;;9.00;;
25846;SDS011;13676;50.168;8.568;2023-04-10T05:34:54;11.65;;;9.32;;
25846;SDS011;13676;50.168;8.568;2023-04-10T05:37:19;11.73;;;8.88;;
25846;SDS011;13676;50.168;8.568;2023-04-10T05:39:45;13.18;;;9.45;;
25846;SDS011;13676;50.168;8.568;2023-04-10T05:42:10;13.57;;;9.13;;
25846;SDS011;13676;50.168;8.568;2023-04-10T05:44:35;13.48;;;10.68;;
25846;SDS011;13676;50.168;8.568;2023-04-10T05:47:01;16.63;;;10.85;;
25846;SDS011;13676;50.168;8.568;2023-04-10T05:49:26;15.80;;;10.55;;
25846;SDS011;13676;50.168;8.568;2023-04-10T05:51:51;12.02;;;9.05;;
25846;SDS011;13676;50.168;8.568;2023-04-10T05:54:17;15.70;;;10.25;;
25846;SDS011;13676;50.168;8.568;2023-04-10T05:56:43;19.95;;;12.68;;
25846;SDS011;13676;50.168;8.568;2023-04-10T05:59:08;21.95;;;14.48;;
25846;SDS011;13676;50.168;8.568;2023-04-10T06:01:33;18.98;;;12.43;;
25846;SDS011;13676;50.168;8.568;2023-04-10T06:03:59;19.92;;;13.02;;
25846;SDS011;13676;50.168;8.568;2023-04-10T06:06:24;16.85;;;11.07;;
25846;SDS011;13676;50.168;8.568;2023-04-10T06:08:50;13.82;;;10.63;;
25846;SDS011;13676;50.168;8.568;2023-04-10T06:11:16;12.85;;;9.90;;
25846;SDS011;13676;50.168;8.568;2023-04-10T06:13:42;13.38;;;9.65;;
25846;SDS011;13676;50.168;8.568;2023-04-10T06:16:07;14.38;;;10.20;;
25846;SDS011;13676;50.168;8.568;2023-04-10T06:18:33;14.05;;;10.52;;
25846;SDS011;13676;50.168;8.568;2023-04-10T06:21:00;13.50;;;8.93;;
25846;SDS011;13676;50.168;8.568;2023-04-10T06:25:54;13.43;;;10.18;;
25846;SDS011;13676;50.168;8.568;2023-04-10T06:28:20;16.17;;;11.18;;
25846;SDS011;13676;50.168;8.568;2023-04-10T06:30:45;12.40;;;9.27;;
25846;SDS011;13676;50.168;8.568;2023-04-10T06:33:10;15.93;;;10.60;;
25846;SDS011;13676;50.168;8.568;2023-04-10T06:35:36;13.75;;;10.82;;
25846;SDS011;13676;50.168;8.568;2023-04-10T06:38:03;16.38;;;10.90;;
25846;SDS011;13676;50.168;8.568;2023-04-10T06:40:28;12.90;;;9.88;;
25846;SDS011;13676;50.168;8.568;2023-04-10T06:42:55;14.20;;;9.85;;
25846;SDS011;13676;50.168;8.568;2023-04-10T06:45:20;13.27;;;10.13;;
25846;SDS011;13676;50.168;8.568;2023-04-10T06:47:47;11.63;;;9.15;;
25846;SDS011;13676;50.168;8.568;2023-04-10T06:50:12;14.80;;;10.13;;
25846;SDS011;13676;50.168;8.568;2023-04-10T06:52:38;17.35;;;10.55;;
25846;SDS011;13676;50.168;8.568;2023-04-10T06:55:03;12.52;;;10.05;;
25846;SDS011;13676;50.168;8.568;2023-04-10T06:57:29;12.75;;;9.10;;
25846;SDS011;13676;50.168;8.568;2023-04-10T06:59:55;12.52;;;9.65;;
25846;SDS011;13676;50.168;8.568;2023-04-10T07:02:20;14.73;;;10.70;;
25846;SDS011;13676;50.168;8.568;2023-04-10T07:04:46;12.48;;;9.93;;
25846;SDS011;13676;50.168;8.568;2023-04-10T07:07:11;12.35;;;9.35;;
25846;SDS011;13676;50.168;8.568;2023-04-10T07:09:37;12.57;;;9.65;;
25846;SDS011;13676;50.168;8.568;2023-04-10T07:12:05;16.05;;;12.25;;
25846;SDS011;13676;50.168;8.568;2023-04-10T07:14:31;12.70;;;9.52;;
25846;SDS011;13676;50.168;8.568;2023-04-10T07:16:58;16.88;;;12.93;;
25846;SDS011;13676;50.168;8.568;2023-04-10T07:19:23;14.32;;;10.45;;
25846;SDS011;13676;50.168;8.568;2023-04-10T07:21:49;14.95;;;10.75;;
25846;SDS011;13676;50.168;8.568;2023-04-10T07:24:15;14.63;;;10.55;;
25846;SDS011;13676;50.168;8.568;2023-04-10T07:26:42;16.98;;;12.15;;
25846;SDS011;13676;50.168;8.568;2023-04-10T07:29:10;14.23;;;9.98;;
25846;SDS011;13676;50.168;8.568;2023-04-10T07:31:36;13.50;;;10.02;;
25846;SDS011;13676;50.168;8.568;2023-04-10T07:34:02;14.13;;;10.13;;
25846;SDS011;13676;50.168;8.568;2023-04-10T07:36:27;12.25;;;9.60;;
25846;SDS011;13676;50.168;8.568;2023-04-10T07:38:53;12.90;;;9.88;;
25846;SDS011;13676;50.168;8.568;2023-04-10T07:41:19;13.75;;;10.10;;
25846;SDS011;13676;50.168;8.568;2023-04-10T07:43:44;15.82;;;12.25;;
25846;SDS011;13676;50.168;8.568;2023-04-10T07:46:10;15.88;;;12.38;;
25846;SDS011;13676;50.168;8.568;2023-04-10T07:48:36;14.75;;;11.40;;
25846;SDS011;13676;50.168;8.568;2023-04-10T07:51:04;15.50;;;11.43;;
25846;SDS011;13676;50.168;8.568;2023-04-10T07:53:33;16.52;;;10.98;;
25846;SDS011;13676;50.168;8.568;2023-04-10T07:55:58;13.35;;;10.30;;
25846;SDS011;13676;50.168;8.568;2023-04-10T07:58:24;15.40;;;11.43;;
25846;SDS011;13676;50.168;8.568;2023-04-10T08:00:49;11.68;;;8.93;;
25846;SDS011;13676;50.168;8.568;2023-04-10T08:03:18;14.05;;;10.18;;
25846;SDS011;13676;50.168;8.568;2023-04-10T08:05:43;12.27;;;9.55;;
25846;SDS011;13676;50.168;8.568;2023-04-10T08:08:08;14.98;;;10.90;;
25846;SDS011;13676;50.168;8.568;2023-04-10T08:10:37;16.48;;;11.25;;
25846;SDS011;13676;50.168;8.568;2023-04-10T08:13:03;16.77;;;10.60;;
25846;SDS011;13676;50.168;8.568;2023-04-10T08:15:29;13.45;;;10.00;;
25846;SDS011;13676;50.168;8.568;2023-04-10T08:17:54;16.85;;;10.98;;
25846;SDS011;13676;50.168;8.568;2023-04-10T08:20:20;15.23;;;9.57;;
25846;SDS011;13676;50.168;8.568;2023-04-10T08:22:45;13.77;;;10.48;;
25846;SDS011;13676;50.168;8.568;2023-04-10T08:25:10;14.07;;;9.98;;
25846;SDS011;13676;50.168;8.568;2023-04-10T08:27:36;14.05;;;10.13;;
25846;SDS011;13676;50.168;8.568;2023-04-10T08:30:01;11.77;;;9.32;;
25846;SDS011;13676;50.168;8.568;2023-04-10T08:32:27;12.80;;;9.55;;
25846;SDS011;13676;50.168;8.568;2023-04-10T08:34:53;11.68;;;9.25;;
25846;SDS011;13676;50.168;8.568;2023-04-10T08:37:18;10.32;;;8.63;;
25846;SDS011;13676;50.168;8.568;2023-04-10T08:39:45;10.10;;;8.77;;
25846;SDS011;13676;50.168;8.568;2023-04-10T08:42:10;8.40;;;7.50;;
25846;SDS011;13676;50.168;8.568;2023-04-10T08:44:36;11.25;;;8.95;;
25846;SDS011;13676;50.168;8.568;2023-04-10T08:47:02;12.82;;;9.07;;
25846;SDS011;13676;50.168;8.568;2023-04-10T08:49:34;10.95;;;8.30;;
25846;SDS011;13676;50.168;8.568;2023-04-10T08:52:05;9.88;;;8.23;;
25846;SDS011;13676;50.168;8.568;2023-04-10T08:54:32;9.52;;;7.78;;
25846;SDS011;13676;50.168;8.568;2023-04-10T08:57:00;8.55;;;7.10;;
25846;SDS011;13676;50.168;8.568;2023-04-10T08:59:29;10.77;;;8.00;;
25846;SDS011;13676;50.168;8.568;2023-04-10T09:01:55;10.38;;;8.15;;
25846;SDS011;13676;50.168;8.568;2023-04-10T09:04:21;9.02;;;7.65;;
25846;SDS011;13676;50.168;8.568;2023-04-10T09:06:48;10.20;;;7.50;;
25846;SDS011;13676;50.168;8.568;2023-04-10T09:09:13;10.32;;;7.95;;
25846;SDS011;13676;50.168;8.568;2023-04-10T09:14:19;8.20;;;6.85;;
25846;SDS011;13676;50.168;8.568;2023-04-10T09:16:49;8.55;;;6.15;;
25846;SDS011;13676;50.168;8.568;2023-04-10T09:19:31;8.95;;;7.22;;
25846;SDS011;13676;50.168;8.568;2023-04-10T09:22:00;7.05;;;5.78;;
25846;SDS011;13676;50.168;8.568;2023-04-10T09:24:25;6.53;;;5.38;;
25846;SDS011;13676;50.168;8.568;2023-04-10T09:26:51;6.82;;;5.65;;
25846;SDS011;13676;50.168;8.568;2023-04-10T09:29:16;6.45;;;4.88;;
25846;SDS011;13676;50.168;8.568;2023-04-10T09:31:47;6.63;;;5.70;;
25846;SDS011;13676;50.168;8.568;2023-04-10T09:34:16;8.20;;;5.57;;
25846;SDS011;13676;50.168;8.568;2023-04-10T09:36:58;5.63;;;4.68;;
25846;SDS011;13676;50.168;8.568;2023-04-10T09:39:32;6.03;;;4.93;;
25846;SDS011;13676;50.168;8.568;2023-04-10T09:41:58;8.10;;;5.35;;
25846;SDS011;13676;50.168;8.568;2023-04-10T09:44:31;6.60;;;5.00;;
25846;SDS011;13676;50.168;8.568;2023-04-10T09:46:57;8.07;;;5.38;;
25846;SDS011;13676;50.168;8.568;2023-04-10T09:49:23;6.00;;;5.05;;
25846;SDS011;13676;50.168;8.568;2023-04-10T09:51:49;7.00;;;5.13;;
25846;SDS011;13676;50.168;8.568;2023-04-10T09:54:14;7.47;;;5.07;;
25846;SDS011;13676;50.168;8.568;2023-04-10T09:56:39;5.97;;;5.00;;
25846;SDS011;13676;50.168;8.568;2023-04-10T09:59:06;6.45;;;4.97;;
25846;SDS011;13676;50.168;8.568;2023-04-10T10:01:32;4.88;;;4.32;;
25846;SDS011;13676;50.168;8.568;2023-04-10T10:04:01;4.38;;;3.70;;
25846;SDS011;13676;50.168;8.568;2023-04-10T10:06:28;4.68;;;3.85;;
25846;SDS011;13676;50.168;8.568;2023-04-10T10:08:55;5.47;;;4.90;;
25846;SDS011;13676;50.168;8.568;2023-04-10T10:11:22;5.90;;;4.35;;
25846;SDS011;13676;50.168;8.568;2023-04-10T10:13:51;5.70;;;4.55;;
25846;SDS011;13676;50.168;8.568;2023-04-10T10:16:33;5.35;;;4.60;;
25846;SDS011;13676;50.168;8.568;2023-04-10T10:21:48;5.57;;;4.32;;
25846;SDS011;13676;50.168;8.568;2023-04-10T10:24:14;5.43;;;4.03;;
25846;SDS011;13676;50.168;8.568;2023-04-10T10:26:40;5.10;;;4.30;;
25846;SDS011;13676;50.168;8.568;2023-04-10T10:29:07;5.72;;;4.80;;
25846;SDS011;13676;50.168;8.568;2023-04-10T10:31:37;5.53;;;4.72;;
25846;SDS011;13676;50.168;8.568;2023-04-10T10:34:03;5.35;;;4.38;;
25846;SDS011;13676;50.168;8.568;2023-04-10T10:36:31;4.63;;;3.80;;
25846;SDS011;13676;50.168;8.568;2023-04-10T10:39:11;5.45;;;4.28;;
25846;SDS011;13676;50.168;8.568;2023-04-10T10:41:45;3.70;;;3.30;;
25846;SDS011;13676;50.168;8.568;2023-04-10T10:46:49;4.50;;;3.58;;
25846;SDS011;13676;50.168;8.568;2023-04-10T10:49:57;4.43;;;3.53;;
25846;SDS011;13676;50.168;8.568;2023-04-10T10:58:00;5.40;;;3.65;;
25846;SDS011;13676;50.168;8.568;2023-04-10T11:01:12;4.70;;;3.80;;
25846;SDS011;13676;50.168;8.568;2023-04-10T11:08:15;3.80;;;3.40;;
25846;SDS011;13676;50.168;8.568;2023-04-10T11:13:29;3.40;;;2.90;;
25846;SDS011;13676;50.168;8.568;2023-04-10T11:15:55;3.88;;;3.42;;
25846;SDS011;13676;50.168;8.568;2023-04-10T11:21:15;4.72;;;3.45;;
25846;SDS011;13676;50.168;8.568;2023-04-10T11:28:57;2.97;;;2.53;;
25846;SDS011;13676;50.168;8.568;2023-04-10T11:31:22;4.32;;;3.85;;
25846;SDS011;13676;50.168;8.568;2023-04-10T11:33:49;4.13;;;2.85;;
25846;SDS011;13676;50.168;8.568;2023-04-10T11:36:24;3.90;;;3.08;;
25846;SDS011;13676;50.168;8.568;2023-04-10T11:38:57;3.90;;;2.92;;
25846;SDS011;13676;50.168;8.568;2023-04-10T11:41:40;4.05;;;2.70;;
25846;SDS011;13676;50.168;8.568;2023-04-10T11:44:07;2.83;;;2.20;;
25846;SDS011;13676;50.168;8.568;2023-04-10T11:46:35;2.60;;;2.38;;
25846;SDS011;13676;50.168;8.568;2023-04-10T11:49:02;3.80;;;2.72;;
25846;SDS011;13676;50.168;8.568;2023-04-10T11:51:29;3.53;;;2.50;;
25846;SDS011;13676;50.168;8.568;2023-04-10T11:54:05;2.83;;;2.35;;
25846;SDS011;13676;50.168;8.568;2023-04-10T11:56:34;2.47;;;2.20;;
25846;SDS011;13676;50.168;8.568;2023-04-10T11:59:00;3.50;;;2.28;;
25846;SDS011;13676;50.168;8.568;2023-04-10T12:01:31;2.10;;;1.80;;
25846;SDS011;13676;50.168;8.568;2023-04-10T12:03:56;2.60;;;2.25;;
25846;SDS011;13676;50.168;8.568;2023-04-10T12:06:21;5.00;;;2.25;;
25846;SDS011;13676;50.168;8.568;2023-04-10T12:08:47;2.20;;;1.95;;
25846;SDS011;13676;50.168;8.568;2023-04-10T12:11:22;2.10;;;1.88;;
25846;SDS011;13676;50.168;8.568;2023-04-10T12:13:55;2.90;;;1.83;;
25846;SDS011;13676;50.168;8.568;2023-04-10T12:16:24;2.22;;;2.03;;
25846;SDS011;13676;50.168;8.568;2023-04-10T12:18:50;3.25;;;2.22;;
25846;SDS011;13676;50.168;8.568;2023-04-10T12:21:16;4.15;;;2.33;;
25846;SDS011;13676;50.168;8.568;2023-04-10T12:23:41;2.22;;;2.03;;
25846;SDS011;13676;50.168;8.568;2023-04-10T12:28:49;1.67;;;1.58;;
25846;SDS011;13676;50.168;8.568;2023-04-10T12:31:24;2.60;;;1.90;;
25846;SDS011;13676;50.168;8.568;2023-04-10T12:34:00;1.42;;;1.33;;
25846;SDS011;13676;50.168;8.568;2023-04-10T12:36:27;2.17;;;1.88;;
25846;SDS011;13676;50.168;8.568;2023-04-10T12:38:54;1.88;;;1.63;;
25846;SDS011;13676;50.168;8.568;2023-04-10T12:41:24;2.22;;;1.88;;
25846;SDS011;13676;50.168;8.568;2023-04-10T12:46:24;1.73;;;1.45;;
25846;SDS011;13676;50.168;8.568;2023-04-10T12:48:51;1.65;;;1.55;;
25846;SDS011;13676;50.168;8.568;2023-04-10T12:51:17;1.65;;;1.42;;
25846;SDS011;13676;50.168;8.568;2023-04-10T12:53:43;2.33;;;1.60;;
25846;SDS011;13676;50.168;8.568;2023-04-10T12:56:09;2.53;;;2.08;;
25846;SDS011;13676;50.168;8.568;2023-04-10T12:58:36;2.58;;;1.83;;
25846;SDS011;13676;50.168;8.568;2023-04-10T13:01:06;1.80;;;1.60;;
25846;SDS011;13676;50.168;8.568;2023-04-10T13:03:33;2.30;;;1.77;;
25846;SDS011;13676;50.168;8.568;2023-04-10T13:06:00;1.90;;;1.65;;
25846;SDS011;13676;50.168;8.568;2023-04-10T13:08:25;2.47;;;1.90;;
25846;SDS011;13676;50.168;8.568;2023-04-10T13:10:56;2.20;;;1.80;;
25846;SDS011;13676;50.168;8.568;2023-04-10T13:13:26;1.70;;;1.58;;
25846;SDS011;13676;50.168;8.568;2023-04-10T13:15:52;2.03;;;1.70;;
25846;SDS011;13676;50.168;8.568;2023-04-10T13:18:19;1.92;;;1.50;;
25846;SDS011;13676;50.168;8.568;2023-04-10T13:20:44;2.15;;;1.80;;
25846;SDS011;13676;50.168;8.568;2023-04-10T13:23:10;1.75;;;1.50;;
25846;SDS011;13676;50.168;8.568;2023-04-10T13:25:36;1.63;;;1.40;;
25846;SDS011;13676;50.168;8.568;2023-04-10T13:28:04;2.15;;;1.35;;
25846;SDS011;13676;50.168;8.568;2023-04-10T13:30:34;2.85;;;1.90;;
25846;SDS011;13676;50.168;8.568;2023-04-10T13:32:59;3.35;;;2.40;;
25846;SDS011;13676;50.168;8.568;2023-04-10T13:35:25;5.07;;;2.10;;
25846;SDS011;13676;50.168;8.568;2023-04-10T13:37:50;3.13;;;1.92;;
25846;SDS011;13676;50.168;8.568;2023-04-10T13:42:43;3.22;;;2.38;;
25846;SDS011;13676;50.168;8.568;2023-04-10T13:45:08;3.45;;;2.50;;
25846;SDS011;13676;50.168;8.568;2023-04-10T13:47:34;2.38;;;2.10;;
25846;SDS011;13676;50.168;8.568;2023-04-10T13:49:59;6.53;;;2.80;;
25846;SDS011;13676;50.168;8.568;2023-04-10T13:52:25;2.13;;;1.92;;
25846;SDS011;13676;50.168;8.568;2023-04-10T13:54:50;2.35;;;2.15;;
25846;SDS011;13676;50.168;8.568;2023-04-10T13:57:16;3.03;;;2.38;;
25846;SDS011;13676;50.168;8.568;2023-04-10T13:59:41;2.83;;;2.47;;
25846;SDS011;13676;50.168;8.568;2023-04-10T14:02:06;3.15;;;2.30;;
25846;SDS011;13676;50.168;8.568;2023-04-10T14:04:33;3.25;;;2.50;;
25846;SDS011;13676;50.168;8.568;2023-04-10T14:06:58;2.67;;;2.30;;
25846;SDS011;13676;50.168;8.568;2023-04-10T14:09:24;3.90;;;3.08;;
25846;SDS011;13676;50.168;8.568;2023-04-10T14:11:50;2.70;;;2.13;;
25846;SDS011;13676;50.168;8.568;2023-04-10T14:14:15;2.00;;;1.80;;
25846;SDS011;13676;50.168;8.568;2023-04-10T14:16:40;2.83;;;2.25;;
25846;SDS011;13676;50.168;8.568;2023-04-10T14:19:06;2.25;;;1.83;;
25846;SDS011;13676;50.168;8.568;2023-04-10T14:21:31;2.70;;;2.00;;
25846;SDS011;13676;50.168;8.568;2023-04-10T14:23:56;2.50;;;2.15;;
25846;SDS011;13676;50.168;8.568;2023-04-10T14:26:23;2.40;;;1.95;;
25846;SDS011;13676;50.168;8.568;2023-04-10T14:28:49;2.22;;;2.03;;
25846;SDS011;13676;50.168;8.568;2023-04-10T14:31:14;6.68;;;2.20;;
25846;SDS011;13676;50.168;8.568;2023-04-10T14:33:39;1.80;;;1.70;;
25846;SDS011;13676;50.168;8.568;2023-04-10T14:36:05;2.10;;;1.90;;
25846;SDS011;13676;50.168;8.568;2023-04-10T14:38:30;2.45;;;2.00;;
25846;SDS011;13676;50.168;8.568;2023-04-10T14:40:56;2.65;;;1.80;;
25846;SDS011;13676;50.168;8.568;2023-04-10T14:43:21;2.10;;;1.90;;
25846;SDS011;13676;50.168;8.568;2023-04-10T14:45:46;2.45;;;1.88;;
25846;SDS011;13676;50.168;8.568;2023-04-10T14:48:12;2.70;;;2.22;;
25846;SDS011;13676;50.168;8.568;2023-04-10T14:50:37;2.55;;;1.77;;
25846;SDS011;13676;50.168;8.568;2023-04-10T14:53:03;1.90;;;1.70;;
25846;SDS011;13676;50.168;8.568;2023-04-10T14:55:30;3.03;;;2.05;;
25846;SDS011;13676;50.168;8.568;2023-04-10T14:57:55;2.28;;;1.63;;
25846;SDS011;13676;50.168;8.568;2023-04-10T15:00:21;1.45;;;1.35;;
25846;SDS011;13676;50.168;8.568;2023-04-10T15:02:49;1.63;;;1.52;;
25846;SDS011;13676;50.168;8.568;2023-04-10T15:05:14;2.45;;;1.65;;
25846;SDS011;13676;50.168;8.568;2023-04-10T15:07:40;1.98;;;1.75;;
25846;SDS011;13676;50.168;8.568;2023-04-10T15:10:05;1.42;;;1.33;;
25846;SDS011;13676;50.168;8.568;2023-04-10T15:12:31;1.80;;;1.60;;
25846;SDS011;13676;50.168;8.568;2023-04-10T15:14:56;2.70;;;1.70;;
25846;SDS011;13676;50.168;8.568;2023-04-10T15:17:22;1.50;;;1.40;;
25846;SDS011;13676;50.168;8.568;2023-04-10T15:19:48;1.98;;;1.60;;
25846;SDS011;13676;50.168;8.568;2023-04-10T15:22:13;1.85;;;1.30;;
25846;SDS011;13676;50.168;8.568;2023-04-10T15:24:39;1.88;;;1.67;;
25846;SDS011;13676;50.168;8.568;2023-04-10T15:27:05;2.17;;;1.65;;
25846;SDS011;13676;50.168;8.568;2023-04-10T15:29:30;1.63;;;1.45;;
25846;SDS011;13676;50.168;8.568;2023-04-10T15:31:58;2.15;;;1.58;;
25846;SDS011;13676;50.168;8.568;2023-04-10T15:34:23;3.03;;;1.80;;
25846;SDS011;13676;50.168;8.568;2023-04-10T15:36:49;3.15;;;1.70;;
25846;SDS011;13676;50.168;8.568;2023-04-10T15:39:14;2.60;;;1.52;;
25846;SDS011;13676;50.168;8.568;2023-04-10T15:41:40;2.00;;;1.48;;